createdAt,value
2023-01-23T00:03:41.225Z,65686.69
2023-01-23T00:08:46.803Z,65703.78
2023-01-23T00:13:52.885Z,65698.97
2023-01-23T00:18:57.584Z,65652.78
2023-01-23T00:24:02.846Z,65612.41
2023-01-23T00:29:09.037Z,65658.41
2023-01-23T00:34:15.244Z,65620.41
2023-01-23T00:39:21.565Z,65577.28
2023-01-23T00:44:27.285Z,65559.06
2023-01-23T00:49:31.626Z,65487.09
2023-01-23T00:54:38.289Z,65583.34
2023-01-23T00:59:43.963Z,65618.81
2023-01-23T01:04:48.103Z,65560.25
2023-01-23T01:09:52.412Z,65637.94
2023-01-23T01:14:58.203Z,65673.16
2023-01-23T01:20:02.642Z,65672.28
2023-01-23T01:25:07.964Z,65745.97
2023-01-23T01:30:14.839Z,65729.41
2023-01-23T01:35:19.348Z,65730.38
2023-01-23T01:40:25.948Z,65721.84
2023-01-23T01:46:08.523Z,65677.28
2023-01-23T01:51:18.178Z,65675.47
2023-01-23T01:56:22.706Z,65708.56
2023-01-23T02:01:28.867Z,65716.16
2023-01-23T02:06:33.799Z,65578.34
2023-01-23T02:11:38.649Z,65660.63
2023-01-23T02:16:50.567Z,65720.69
2023-01-23T02:22:05.329Z,65673.34
2023-01-23T02:27:11.317Z,65627.88
2023-01-23T02:32:15.940Z,65641.34
2023-01-23T02:37:22.077Z,65611.44
2023-01-23T02:42:28.372Z,65680.28
2023-01-23T02:47:33.853Z,65699.41
2023-01-23T02:52:38.192Z,65676.53
2023-01-23T02:57:45.249Z,65631.72
2023-01-23T03:02:50.955Z,65487.53
2023-01-23T03:07:55.462Z,65569.31
2023-01-23T03:13:07.537Z,65457.69
2023-01-23T03:18:11.812Z,65530.38
2023-01-23T03:23:16.783Z,65571.75
2023-01-23T03:28:39.830Z,65638.47
2023-01-23T03:33:45.727Z,65636.88
2023-01-23T03:39:05.057Z,65657.88
2023-01-23T03:44:11.693Z,65615.63
2023-01-23T03:49:17.255Z,65462.38
2023-01-23T03:54:23.049Z,65480.69
2023-01-23T03:59:30.048Z,65484.34
2023-01-23T04:04:35.620Z,65610.19
2023-01-23T04:09:43.527Z,65644.31
2023-01-23T04:14:50.152Z,65630.66
2023-01-23T04:19:54.649Z,65557.22
2023-01-23T04:24:59.093Z,65602.91
2023-01-23T04:30:05.267Z,65584.66
2023-01-23T04:35:12.049Z,65545.19
2023-01-23T04:40:19.463Z,65593.09
2023-01-23T04:45:35.192Z,65504.78
2023-01-23T04:50:52.371Z,65452.44
2023-01-23T04:55:56.900Z,65424.66
2023-01-23T05:01:08.563Z,65406.00
2023-01-23T05:06:14.687Z,65378.59
2023-01-23T05:11:20.745Z,65432.31
2023-01-23T05:16:26.828Z,65399.28
2023-01-23T05:22:06.521Z,65441.25
2023-01-23T05:27:11.359Z,65432.09
2023-01-23T05:32:19.947Z,65501.78
2023-01-23T05:37:32.627Z,65537.84
2023-01-23T05:42:41.210Z,65556.41
2023-01-23T05:48:12.818Z,65456.81
2023-01-23T05:53:17.125Z,65373.06
2023-01-23T05:58:21.678Z,65462.03
2023-01-23T06:03:59.739Z,65452.44
2023-01-23T06:09:26.976Z,65413.13
2023-01-23T06:14:31.283Z,65396.09
2023-01-23T06:19:37.056Z,65374.16
2023-01-23T06:24:41.908Z,65421.03
2023-01-23T06:29:47.341Z,65393.31
2023-01-23T06:34:55.849Z,65385.97
2023-01-23T06:40:00.721Z,65373.06
2023-01-23T06:45:05.869Z,65375.63
2023-01-23T06:50:12.752Z,65376.91
2023-01-23T06:55:17.429Z,65382.56
2023-01-23T07:00:23.025Z,65376.81
2023-01-23T07:05:31.538Z,65372.44
2023-01-23T07:10:37.821Z,65401.41
2023-01-23T07:15:42.573Z,65424.84
2023-01-23T07:20:49.874Z,65395.44
2023-01-23T07:26:00.596Z,65427.41
2023-01-23T07:31:07.741Z,65469.41
2023-01-23T07:36:15.185Z,65476.00
2023-01-23T07:41:19.573Z,65444.03
2023-01-23T07:46:25.940Z,65466.84
2023-01-23T07:51:31.730Z,65432.22
2023-01-23T07:56:36.307Z,65484.44
2023-01-23T08:01:40.631Z,65526.53
2023-01-23T08:06:46.877Z,65515.25
2023-01-23T08:11:55.458Z,65519.50
2023-01-23T08:17:01.239Z,65509.91
2023-01-23T08:22:06.855Z,65558.09
2023-01-23T08:27:13.956Z,65536.56
2023-01-23T08:32:18.266Z,65463.63
2023-01-23T08:37:24.149Z,65487.09
2023-01-23T08:42:28.213Z,65560.66
2023-01-23T08:47:36.700Z,65473.34
2023-01-23T08:52:42.764Z,65502.66
2023-01-23T08:57:46.820Z,65505.22
2023-01-23T09:02:51.688Z,65514.19
2023-01-23T09:08:00.697Z,65464.06
2023-01-23T09:13:05.499Z,65464.47
2023-01-23T09:18:10.084Z,65453.00
2023-01-23T09:23:16.206Z,65446.16
2023-01-23T09:28:20.647Z,65460.44
2023-01-23T09:33:27.272Z,65530.38
2023-01-23T09:38:34.238Z,65530.03
2023-01-23T09:43:46.086Z,65525.47
2023-01-23T09:48:57.498Z,65571.13
2023-01-23T09:54:12.539Z,65529.31
2023-01-23T09:59:35.052Z,65516.94
2023-01-23T10:04:39.435Z,65542.09
2023-01-23T10:10:06.876Z,65568.78
2023-01-23T10:15:35.363Z,65578.16
2023-01-23T10:20:58.320Z,65584.59
2023-01-23T10:26:06.059Z,65531.97
2023-01-23T10:31:14.168Z,65608.22
2023-01-23T10:36:27.397Z,65547.25
2023-01-23T10:41:34.640Z,65607.69
2023-01-23T10:46:47.966Z,65648.78
2023-01-23T10:51:52.345Z,65679.66
2023-01-23T10:57:01.149Z,65663.63
2023-01-23T11:02:21.842Z,65685.53
2023-01-23T11:07:28.550Z,65726.28
2023-01-23T11:12:35.578Z,65698.09
2023-01-23T11:17:40.194Z,65747.91
2023-01-23T11:22:45.165Z,65755.38
2023-01-23T11:28:00.272Z,65773.94
2023-01-23T11:33:14.480Z,65750.22
2023-01-23T11:38:30.239Z,65716.59
2023-01-23T11:43:37.139Z,65779.06
2023-01-23T11:48:51.549Z,65757.28
2023-01-23T11:54:05.431Z,65808.81
2023-01-23T11:59:51.233Z,65719.69
2023-01-23T12:05:17.548Z,65750.69
2023-01-23T12:10:25.970Z,65729.94
2023-01-23T12:15:40.196Z,65738.47
2023-01-23T12:20:56.017Z,65745.31
2023-01-23T12:26:08.933Z,65703.66
2023-01-23T12:31:30.264Z,65702.28
2023-01-23T12:37:11.709Z,65704.84
2023-01-23T12:42:24.078Z,65695.25
2023-01-23T12:47:34.293Z,65679.56
2023-01-23T12:52:44.627Z,65681.88
2023-01-23T12:57:59.920Z,65639.81
2023-01-23T13:03:22.743Z,65660.97
2023-01-23T13:08:43.293Z,65582.97
2023-01-23T13:13:55.483Z,65607.16
2023-01-23T13:19:18.278Z,65610.28
2023-01-23T13:25:02.519Z,65625.75
2023-01-23T13:30:36.443Z,65685.53
2023-01-23T13:35:56.411Z,65634.28
2023-01-23T13:41:33.990Z,65648.69
2023-01-23T14:25:20.112Z,65576.66
2023-01-23T14:30:29.129Z,65581.56
2023-01-23T14:35:34.357Z,65591.19
2023-01-23T14:40:50.707Z,65589.03
2023-01-23T14:46:03.763Z,65548.84
2023-01-23T14:51:20.138Z,65529.72
2023-01-23T14:56:28.850Z,65535.16
2023-01-23T15:01:36.050Z,65500.97
2023-01-23T15:06:45.575Z,65509.91
2023-01-23T15:11:52.971Z,65621.47
2023-01-23T15:17:17.503Z,65598.09
2023-01-23T15:22:29.330Z,65617.50
2023-01-23T15:27:40.984Z,65583.69
2023-01-23T15:32:53.916Z,65594.81
2023-01-23T15:38:10.674Z,65593.31
2023-01-23T15:43:30.901Z,65606.63
2023-01-23T15:48:45.983Z,65584.22
2023-01-23T15:54:07.949Z,65579.25
2023-01-23T15:59:23.573Z,65630.66
2023-01-23T16:04:50.010Z,65555.78
2023-01-23T16:10:20.439Z,65677.16
2023-01-23T16:15:31.955Z,65609.75
2023-01-23T16:20:49.972Z,65617.94
2023-01-23T16:25:59.279Z,65744.69
2023-01-23T16:31:17.049Z,65673.78
2023-01-23T16:36:29.404Z,65700.03
2023-01-23T16:47:07.233Z,65671.75
2023-01-23T16:52:21.782Z,65677.00
2023-01-23T16:57:39.053Z,65679.75
2023-01-23T17:02:50.176Z,65695.25
2023-01-23T17:08:13.049Z,65657.94
2023-01-23T17:13:28.587Z,65687.03
2023-01-23T17:18:45.494Z,65709.09
2023-01-23T17:23:55.435Z,65668.00
2023-01-23T17:29:09.497Z,65668.22
2023-01-23T17:34:26.482Z,65656.06
2023-01-23T17:39:38.401Z,65724.50
2023-01-23T17:45:22.216Z,65633.84
2023-01-23T17:50:35.433Z,65576.66
2023-01-23T17:55:48.327Z,65589.56
2023-01-23T18:00:57.377Z,65545.72
2023-01-23T18:06:06.128Z,65585.84
2023-01-23T18:11:22.308Z,65586.19
2023-01-23T18:16:35.847Z,65553.66
2023-01-23T18:21:50.249Z,65536.03
2023-01-23T18:27:16.135Z,65593.94
2023-01-23T18:33:29.997Z,65580.50
2023-01-23T18:39:00.559Z,65574.00
2023-01-23T18:44:35.872Z,65532.50
2023-01-23T18:49:52.676Z,65553.84
2023-01-23T18:55:13.697Z,65558.63
2023-01-23T19:01:01.156Z,65530.38
2023-01-23T19:06:18.632Z,65543.59
2023-01-23T19:11:47.147Z,65574.00
2023-01-23T19:17:17.499Z,65572.50
2023-01-23T19:22:33.318Z,65600.56
2023-01-23T19:27:43.098Z,65592.03
2023-01-23T19:32:50.121Z,65581.47
2023-01-23T19:37:56.247Z,65611.16
2023-01-23T19:43:15.251Z,65613.03
2023-01-23T19:48:21.819Z,65602.28
2023-01-23T19:53:26.856Z,65595.88
2023-01-23T19:58:32.288Z,65592.25
2023-01-23T20:03:39.596Z,65570.91
2023-01-23T20:08:44.589Z,65586.28
2023-01-23T20:13:49.812Z,65545.94
2023-01-23T20:18:56.982Z,65604.06
2023-01-23T20:24:01.976Z,65599.72
2023-01-23T20:29:07.473Z,65566.97
2023-01-23T20:34:13.774Z,65473.75
2023-01-23T20:39:18.444Z,65507.16
2023-01-23T20:44:23.054Z,65497.22
2023-01-23T20:49:29.445Z,65547.34
2023-01-23T20:54:33.883Z,65528.78
2023-01-23T20:59:38.375Z,65475.56
2023-01-23T21:04:45.551Z,65481.66
2023-01-23T21:09:50.112Z,65495.19
2023-01-23T21:14:54.723Z,65464.72
2023-01-23T21:20:00.616Z,65513.75
2023-01-23T21:25:05.560Z,65501.81
2023-01-23T21:30:11.443Z,65483.38
2023-01-23T21:35:17.792Z,65500.97
2023-01-23T21:40:22.348Z,65477.69
2023-01-23T21:45:27.283Z,65438.69
2023-01-23T21:50:33.114Z,65437.00
2023-01-23T21:55:37.911Z,65418.25
2023-01-23T22:00:59.206Z,65386.50
2023-01-23T22:06:05.132Z,65389.25
2023-01-23T22:11:10.480Z,65409.84
2023-01-23T22:16:14.980Z,65384.69
2023-01-23T22:21:21.110Z,65374.34
2023-01-23T22:26:25.753Z,65384.69
2023-01-23T22:31:30.125Z,65347.53
2023-01-23T22:36:36.395Z,65365.63
2023-01-23T22:41:41.031Z,65365.09
2023-01-23T22:46:46.063Z,65354.56
2023-01-23T22:51:52.790Z,65449.88
2023-01-23T22:56:57.247Z,65438.16
2023-01-23T23:02:01.612Z,65425.72
2023-01-23T23:07:07.451Z,65423.25
2023-01-23T23:12:13.518Z,65422.53
2023-01-23T23:17:17.540Z,65405.28
2023-01-23T23:22:23.813Z,65429.00
2023-01-23T23:27:28.355Z,65385.44
2023-01-23T23:32:32.838Z,65397.06
2023-01-23T23:37:38.721Z,65377.88
2023-01-23T23:42:42.787Z,65399.81
2023-01-23T23:47:47.191Z,65405.56
2023-01-23T23:52:53.163Z,65379.91
2023-01-23T23:57:57.644Z,65391.63
